createdAt,value
2022-12-28T00:01:46.172Z,-1.20
2022-12-28T00:04:15.449Z,-1.10
2022-12-28T00:06:42.341Z,-1.10
2022-12-28T00:09:12.030Z,-1.10
2022-12-28T00:11:39.113Z,-1.20
2022-12-28T00:14:06.058Z,-1.20
2022-12-28T00:16:37.012Z,-1.20
2022-12-28T00:19:10.219Z,-1.20
2022-12-28T00:21:37.151Z,-1.20
2022-12-28T00:24:04.680Z,-1.20
2022-12-28T00:26:34.459Z,-1.20
2022-12-28T00:29:05.218Z,-1.20
2022-12-28T00:31:34.419Z,-1.30
2022-12-28T00:34:02.640Z,-1.30
2022-12-28T00:37:10.050Z,-1.30
2022-12-28T00:39:18.553Z,-1.30
2022-12-28T00:41:45.288Z,-1.30
2022-12-28T00:44:12.276Z,-1.30
2022-12-28T00:46:39.189Z,-1.30
2022-12-28T00:49:06.058Z,-1.30
2022-12-28T00:51:32.921Z,-1.30
2022-12-28T00:53:59.636Z,-1.20
2022-12-28T00:56:28.960Z,-1.20
2022-12-28T00:58:59.151Z,-1.20
2022-12-28T01:01:28.516Z,-1.20
2022-12-28T01:03:57.352Z,-1.10
2022-12-28T01:06:30.716Z,-1.10
2022-12-28T01:08:57.759Z,-1.10
2022-12-28T01:11:30.438Z,-1.10
2022-12-28T01:14:01.039Z,-1.10
2022-12-28T01:16:32.681Z,-1.00
2022-12-28T01:19:03.062Z,-1.00
2022-12-28T01:21:33.638Z,-1.00
2022-12-28T01:24:04.339Z,-1.00
2022-12-28T01:26:34.366Z,-0.90
2022-12-28T01:29:01.584Z,-0.90
2022-12-28T01:31:28.480Z,-0.90
2022-12-28T01:33:55.534Z,-0.90
2022-12-28T01:36:26.309Z,-0.80
2022-12-28T01:38:56.796Z,-0.80
2022-12-28T01:41:25.027Z,-0.80
2022-12-28T01:43:54.817Z,-0.70
2022-12-28T01:46:49.931Z,-0.70
2022-12-28T01:49:25.950Z,-0.60
2022-12-28T01:52:27.927Z,-0.60
2022-12-28T01:55:23.931Z,-0.60
2022-12-28T01:58:01.240Z,-0.50
2022-12-28T02:00:29.091Z,-0.50
2022-12-28T02:03:11.524Z,-0.40
2022-12-28T02:06:01.660Z,-0.40
2022-12-28T02:09:08.150Z,-0.30
2022-12-28T02:11:36.356Z,-0.30
2022-12-28T02:14:04.666Z,-0.30
2022-12-28T02:16:31.570Z,-0.20
2022-12-28T02:18:58.545Z,-0.10
2022-12-28T02:21:48.252Z,-0.10
2022-12-28T02:24:35.922Z,0.00
2022-12-28T02:27:25.040Z,0.10
2022-12-28T02:30:08.926Z,0.10
2022-12-28T02:33:06.012Z,0.10
2022-12-28T02:35:43.863Z,0.20
2022-12-28T02:38:23.505Z,0.20
2022-12-28T02:41:08.418Z,0.20
2022-12-28T02:43:35.769Z,0.20
2022-12-28T02:46:46.943Z,0.30
2022-12-28T02:49:43.113Z,0.30
2022-12-28T02:52:58.509Z,0.30
2022-12-28T02:56:01.096Z,0.30
2022-12-28T02:58:55.519Z,0.30
2022-12-28T03:02:04.063Z,0.30
2022-12-28T03:05:03.777Z,0.30
2022-12-28T03:08:05.927Z,0.30
2022-12-28T03:11:07.295Z,0.30
2022-12-28T03:14:06.589Z,0.30
2022-12-28T03:17:04.013Z,0.30
2022-12-28T03:20:05.440Z,0.30
2022-12-28T03:22:54.479Z,0.30
2022-12-28T03:25:45.856Z,0.30
2022-12-28T03:28:35.494Z,0.40
2022-12-28T03:31:12.344Z,0.40
2022-12-28T03:33:49.402Z,0.40
2022-12-28T03:36:32.813Z,0.40
2022-12-28T03:39:25.242Z,0.40
2022-12-28T03:42:37.058Z,0.40
2022-12-28T03:45:12.487Z,0.40
2022-12-28T03:47:42.688Z,0.40
2022-12-28T03:50:09.946Z,0.40
2022-12-28T03:52:37.016Z,0.50
2022-12-28T03:55:04.621Z,0.50
2022-12-28T03:57:31.411Z,0.50
2022-12-28T03:59:58.132Z,0.50
2022-12-28T04:02:24.967Z,0.60
2022-12-28T04:04:51.794Z,0.60
2022-12-28T04:07:18.585Z,0.60
2022-12-28T04:09:45.369Z,0.60
2022-12-28T04:12:14.437Z,0.70
2022-12-28T04:14:41.150Z,0.70
2022-12-28T04:17:07.942Z,0.70
2022-12-28T04:19:34.669Z,0.70
2022-12-28T04:22:01.478Z,0.80
2022-12-28T04:24:28.191Z,0.80
2022-12-28T04:26:54.966Z,0.80
2022-12-28T04:29:21.727Z,0.80
2022-12-28T04:31:48.451Z,0.70
2022-12-28T04:34:15.275Z,0.70
2022-12-28T04:36:42.929Z,0.70
2022-12-28T04:39:09.963Z,0.70
2022-12-28T04:41:36.759Z,0.70
2022-12-28T04:44:03.563Z,0.70
2022-12-28T04:46:30.345Z,0.70
2022-12-28T04:48:57.043Z,0.70
2022-12-28T04:51:27.504Z,0.70
2022-12-28T04:53:56.040Z,0.80
2022-12-28T04:56:25.165Z,0.80
2022-12-28T04:58:58.361Z,0.80
2022-12-28T05:01:26.368Z,0.90
2022-12-28T05:03:58.259Z,0.90
2022-12-28T05:06:28.055Z,0.90
2022-12-28T05:08:57.078Z,1.00
2022-12-28T05:11:29.152Z,1.00
2022-12-28T05:13:56.893Z,1.00
2022-12-28T05:16:26.777Z,1.10
2022-12-28T05:18:56.854Z,1.10
2022-12-28T05:21:27.213Z,1.10
2022-12-28T05:23:55.068Z,1.10
2022-12-28T05:26:26.230Z,1.20
2022-12-28T05:28:53.229Z,1.20
2022-12-28T05:31:23.227Z,1.30
2022-12-28T05:33:50.736Z,1.30
2022-12-28T05:36:21.193Z,1.40
2022-12-28T05:38:48.398Z,1.40
2022-12-28T05:41:22.969Z,1.40
2022-12-28T05:43:50.548Z,1.50
2022-12-28T05:46:28.065Z,1.50
2022-12-28T05:48:55.677Z,1.50
2022-12-28T05:51:26.086Z,1.60
2022-12-28T05:53:53.730Z,1.60
2022-12-28T05:56:27.463Z,1.60
2022-12-28T05:59:01.520Z,1.70
2022-12-28T06:01:35.224Z,1.70
2022-12-28T06:04:16.665Z,1.70
2022-12-28T06:06:44.732Z,1.70
2022-12-28T06:09:11.566Z,1.80
2022-12-28T06:11:39.058Z,1.80
2022-12-28T06:14:06.188Z,1.90
2022-12-28T06:16:37.587Z,1.90
2022-12-28T06:19:09.923Z,1.90
2022-12-28T06:21:39.577Z,1.90
2022-12-28T06:24:07.803Z,1.90
2022-12-28T06:26:37.174Z,2.00
2022-12-28T06:29:04.795Z,2.00
2022-12-28T06:31:36.214Z,2.00
2022-12-28T06:34:06.055Z,2.00
2022-12-28T06:36:37.346Z,2.00
2022-12-28T06:39:07.907Z,2.10
2022-12-28T06:41:35.697Z,2.10
2022-12-28T06:44:06.673Z,2.10
2022-12-28T06:46:33.456Z,2.20
2022-12-28T06:49:00.640Z,2.20
2022-12-28T06:51:36.165Z,2.20
2022-12-28T06:54:03.102Z,2.20
2022-12-28T06:56:33.592Z,2.30
2022-12-28T06:59:03.762Z,2.30
2022-12-28T07:01:38.114Z,2.30
2022-12-28T07:04:07.750Z,2.30
2022-12-28T07:06:38.339Z,2.30
2022-12-28T07:09:09.729Z,2.30
2022-12-28T07:11:37.239Z,2.40
2022-12-28T07:14:04.310Z,2.40
2022-12-28T07:18:59.849Z,2.40
2022-12-28T07:21:32.983Z,2.50
2022-12-28T07:24:00.793Z,2.50
2022-12-28T07:26:34.049Z,2.50
2022-12-28T07:29:04.194Z,2.60
2022-12-28T07:31:44.169Z,2.60
2022-12-28T07:34:14.501Z,2.60
2022-12-28T07:36:41.912Z,2.70
2022-12-28T07:39:08.965Z,2.70
2022-12-28T07:41:38.463Z,2.70
2022-12-28T07:44:05.889Z,2.80
2022-12-28T07:46:35.261Z,2.90
2022-12-28T07:49:02.194Z,2.90
2022-12-28T07:51:35.878Z,3.00
2022-12-28T07:54:04.180Z,3.00
2022-12-28T07:59:04.517Z,3.10
2022-12-28T08:01:35.396Z,3.10
2022-12-28T08:04:10.275Z,3.20
2022-12-28T08:06:40.606Z,3.20
2022-12-28T08:09:10.175Z,3.30
2022-12-28T08:11:40.836Z,3.30
2022-12-28T08:14:08.505Z,3.30
2022-12-28T08:16:39.551Z,3.40
2022-12-28T08:19:08.066Z,3.40
2022-12-28T08:21:44.344Z,3.40
2022-12-28T08:24:16.847Z,3.50
2022-12-28T08:26:44.898Z,3.60
2022-12-28T08:29:16.948Z,3.60
2022-12-28T08:31:45.381Z,3.70
2022-12-28T08:34:17.999Z,3.80
2022-12-28T08:36:45.138Z,3.90
2022-12-28T08:39:12.077Z,4.00
2022-12-28T08:41:38.886Z,4.10
2022-12-28T08:44:06.220Z,4.20
2022-12-28T08:46:36.113Z,4.30
2022-12-28T08:49:04.221Z,4.30
2022-12-28T08:51:39.614Z,4.30
2022-12-28T08:54:07.965Z,4.30
2022-12-28T08:56:38.832Z,4.40
2022-12-28T08:59:06.813Z,4.40
2022-12-28T09:01:43.727Z,4.50
2022-12-28T09:04:20.352Z,4.50
2022-12-28T09:06:48.101Z,4.50
2022-12-28T09:09:19.097Z,4.60
2022-12-28T09:11:46.863Z,4.60
2022-12-28T09:14:24.418Z,4.60
2022-12-28T09:16:53.737Z,4.70
2022-12-28T09:19:21.556Z,4.80
2022-12-28T09:21:49.282Z,4.80
2022-12-28T09:24:16.352Z,4.90
2022-12-28T09:26:44.511Z,5.00
2022-12-28T09:29:13.945Z,5.10
2022-12-28T09:31:42.009Z,5.20
2022-12-28T09:37:00.364Z,5.30
2022-12-28T09:39:27.199Z,5.40
2022-12-28T09:42:04.168Z,5.50
2022-12-28T09:44:59.441Z,5.60
2022-12-28T09:47:49.932Z,5.60
2022-12-28T09:50:16.585Z,5.70
2022-12-28T09:52:57.379Z,5.70
2022-12-28T09:55:25.899Z,5.80
2022-12-28T09:57:57.497Z,5.90
2022-12-28T10:00:42.434Z,6.00
2022-12-28T10:03:20.410Z,6.00
2022-12-28T10:05:49.779Z,6.10
2022-12-28T10:08:22.336Z,6.20
2022-12-28T10:10:51.502Z,6.30
2022-12-28T10:13:53.052Z,6.30
2022-12-28T10:16:20.891Z,6.40
2022-12-28T10:18:49.430Z,6.40
2022-12-28T10:21:20.226Z,6.50
2022-12-28T10:24:29.617Z,6.60
2022-12-28T10:26:46.002Z,6.60
2022-12-28T10:29:22.160Z,6.60
2022-12-28T10:32:05.156Z,6.60
2022-12-28T10:34:35.028Z,6.70
2022-12-28T10:37:15.875Z,6.70
2022-12-28T10:40:07.668Z,6.80
2022-12-28T10:42:42.497Z,6.80
2022-12-28T10:45:34.243Z,6.90
2022-12-28T10:48:02.668Z,7.00
2022-12-28T10:50:55.027Z,7.00
2022-12-28T10:53:41.202Z,7.10
2022-12-28T10:56:13.810Z,7.10
2022-12-28T10:58:43.853Z,7.00
2022-12-28T11:01:13.474Z,6.90
2022-12-28T11:03:55.182Z,6.80
2022-12-28T11:06:28.264Z,6.80
2022-12-28T11:09:14.785Z,6.80
2022-12-28T11:11:44.572Z,6.80
2022-12-28T11:14:34.642Z,6.90
2022-12-28T11:17:22.181Z,6.90
2022-12-28T11:19:54.791Z,7.00
2022-12-28T11:22:26.098Z,7.10
2022-12-28T11:24:52.958Z,7.20
2022-12-28T11:27:23.360Z,7.20
2022-12-28T11:29:54.018Z,7.30
2022-12-28T11:32:45.554Z,7.40
2022-12-28T11:35:23.653Z,7.50
2022-12-28T11:37:53.391Z,7.70
2022-12-28T11:40:52.358Z,8.00
2022-12-28T11:43:31.868Z,8.40
2022-12-28T11:46:04.549Z,8.70
2022-12-28T11:48:43.158Z,8.60
2022-12-28T11:51:31.470Z,8.40
2022-12-28T11:54:34.297Z,8.10
2022-12-28T11:57:01.048Z,7.90
2022-12-28T11:59:30.394Z,7.90
2022-12-28T12:02:00.817Z,7.90
2022-12-28T12:04:35.923Z,7.90
2022-12-28T12:07:02.638Z,8.00
2022-12-28T12:09:46.148Z,8.10
2022-12-28T12:12:18.190Z,8.10
2022-12-28T12:15:09.790Z,8.20
2022-12-28T12:17:44.997Z,8.20
2022-12-28T12:20:47.773Z,8.20
2022-12-28T12:23:38.880Z,8.10
2022-12-28T12:26:33.564Z,8.10
2022-12-28T12:29:15.976Z,8.10
2022-12-28T12:31:57.481Z,8.10
2022-12-28T12:34:50.732Z,8.20
2022-12-28T12:37:59.286Z,8.20
2022-12-28T12:41:13.957Z,8.40
2022-12-28T12:44:10.288Z,8.70
2022-12-28T12:47:23.033Z,8.80
2022-12-28T12:50:47.035Z,9.00
2022-12-28T12:53:22.898Z,9.10
2022-12-28T12:56:28.472Z,9.10
2022-12-28T12:59:33.265Z,8.90
2022-12-28T13:02:12.083Z,8.70
2022-12-28T13:04:45.920Z,8.60
2022-12-28T13:07:21.481Z,8.50
2022-12-28T13:09:49.874Z,8.40
2022-12-28T13:12:19.707Z,8.40
2022-12-28T13:15:00.931Z,8.50
2022-12-28T13:17:29.089Z,8.50
2022-12-28T13:20:20.647Z,8.50
2022-12-28T13:22:49.145Z,8.50
2022-12-28T13:25:30.481Z,8.50
2022-12-28T13:28:03.895Z,8.50
2022-12-28T13:30:30.985Z,8.50
2022-12-28T13:33:04.787Z,8.60
2022-12-28T13:35:33.660Z,8.50
2022-12-28T13:38:13.429Z,8.50
2022-12-28T13:40:48.314Z,8.40
2022-12-28T13:43:59.788Z,8.30
2022-12-28T13:46:27.609Z,8.20
2022-12-28T13:48:57.889Z,8.10
2022-12-28T13:51:26.127Z,8.10
2022-12-28T13:53:59.967Z,8.00
2022-12-28T13:56:28.879Z,8.00
2022-12-28T13:59:04.444Z,8.00
2022-12-28T14:01:38.428Z,8.00
2022-12-28T14:04:50.610Z,8.00
2022-12-28T14:06:56.957Z,7.90
2022-12-28T14:09:24.113Z,8.00
2022-12-28T14:11:51.569Z,7.90
2022-12-28T14:14:18.817Z,7.90
2022-12-28T14:16:46.115Z,7.90
2022-12-28T14:19:13.447Z,7.90
2022-12-28T14:21:45.097Z,7.90
2022-12-28T14:24:16.118Z,7.80
2022-12-28T14:26:57.838Z,7.80
2022-12-28T14:29:32.410Z,7.80
2022-12-28T14:32:03.797Z,7.80
2022-12-28T14:34:35.765Z,7.70
2022-12-28T14:37:05.129Z,7.70
2022-12-28T14:39:45.141Z,7.60
2022-12-28T14:42:24.880Z,7.60
2022-12-28T14:44:56.202Z,7.60
2022-12-28T14:47:46.720Z,7.60
2022-12-28T14:50:25.836Z,7.60
2022-12-28T14:53:15.294Z,7.50
2022-12-28T14:55:55.134Z,7.50
2022-12-28T14:58:30.348Z,7.50
2022-12-28T15:01:05.862Z,7.50
2022-12-28T15:04:23.942Z,7.50
2022-12-28T15:06:50.699Z,7.40
2022-12-28T15:09:17.708Z,7.40
2022-12-28T15:11:47.294Z,7.40
2022-12-28T15:14:14.048Z,7.40
2022-12-28T15:16:40.857Z,7.30
2022-12-28T15:19:07.598Z,7.30
2022-12-28T15:21:34.466Z,7.30
2022-12-28T15:24:01.229Z,7.30
2022-12-28T15:26:28.001Z,6.70
2022-12-28T15:28:54.736Z,7.30
2022-12-28T15:31:22.184Z,7.20
2022-12-28T15:33:49.273Z,7.20
2022-12-28T15:36:21.304Z,7.20
2022-12-28T15:38:48.872Z,7.20
2022-12-28T15:41:36.780Z,7.20
2022-12-28T15:44:04.551Z,7.20
2022-12-28T15:46:31.632Z,7.20
2022-12-28T15:49:01.319Z,7.20
2022-12-28T15:51:28.167Z,7.20
2022-12-28T15:53:54.929Z,7.20
2022-12-28T15:56:34.596Z,7.20
2022-12-28T15:59:04.568Z,7.20
2022-12-28T16:01:32.626Z,7.10
2022-12-28T16:04:02.380Z,7.10
2022-12-28T16:06:31.709Z,7.10
2022-12-28T16:09:01.026Z,7.10
2022-12-28T16:11:30.012Z,7.00
2022-12-28T16:14:03.327Z,7.00
2022-12-28T16:16:38.597Z,7.00
2022-12-28T16:19:06.834Z,7.00
2022-12-28T16:21:34.301Z,7.00
2022-12-28T16:24:01.889Z,6.90
2022-12-28T16:26:28.953Z,6.90
2022-12-28T16:28:56.801Z,6.90
2022-12-28T16:31:26.321Z,6.90
2022-12-28T16:34:00.086Z,6.90
2022-12-28T16:36:27.667Z,6.90
2022-12-28T16:38:56.773Z,6.90
2022-12-28T16:41:25.261Z,6.90
2022-12-28T16:43:52.351Z,6.80
2022-12-28T16:46:19.262Z,6.80
2022-12-28T16:48:46.128Z,6.80
2022-12-28T16:51:12.848Z,6.80
2022-12-28T16:53:39.626Z,6.80
2022-12-28T16:56:09.792Z,6.80
2022-12-28T16:58:36.492Z,6.80
2022-12-28T17:01:09.525Z,6.80
2022-12-28T17:03:38.644Z,6.80
2022-12-28T17:06:06.349Z,6.80
2022-12-28T17:08:36.083Z,6.80
2022-12-28T17:11:09.128Z,6.80
2022-12-28T17:13:37.684Z,6.70
2022-12-28T17:16:06.305Z,6.70
2022-12-28T17:18:33.161Z,6.60
2022-12-28T17:21:04.875Z,6.60
2022-12-28T17:23:33.171Z,6.50
2022-12-28T17:25:59.936Z,6.50
2022-12-28T17:28:26.846Z,6.50
2022-12-28T17:31:07.815Z,6.40
2022-12-28T17:33:39.289Z,6.40
2022-12-28T17:36:08.445Z,6.40
2022-12-28T17:38:35.263Z,6.30
2022-12-28T17:41:20.843Z,6.30
2022-12-28T17:43:50.485Z,6.30
2022-12-28T17:46:18.394Z,6.20
2022-12-28T17:48:45.235Z,6.20
2022-12-28T17:51:12.664Z,6.20
2022-12-28T17:53:41.200Z,6.10
2022-12-28T17:56:14.279Z,6.10
2022-12-28T17:58:43.519Z,6.10
2022-12-28T18:01:12.943Z,6.00
2022-12-28T18:03:39.907Z,6.00
2022-12-28T18:06:07.502Z,5.90
2022-12-28T18:08:34.359Z,5.90
2022-12-28T18:11:01.550Z,5.80
2022-12-28T18:13:28.303Z,5.80
2022-12-28T18:16:03.474Z,5.70
2022-12-28T18:18:30.871Z,5.70
2022-12-28T18:21:07.459Z,5.60
2022-12-28T18:23:35.205Z,5.60
2022-12-28T18:26:13.703Z,5.60
2022-12-28T18:28:40.433Z,5.60
2022-12-28T18:31:07.958Z,5.60
2022-12-28T18:33:35.471Z,5.60
2022-12-28T18:36:06.660Z,5.60
2022-12-28T18:38:35.615Z,5.60
2022-12-28T18:41:02.339Z,5.60
2022-12-28T18:43:29.109Z,5.60
2022-12-28T18:46:02.157Z,5.60
2022-12-28T18:48:31.132Z,5.60
2022-12-28T18:51:05.141Z,5.60
2022-12-28T18:53:32.416Z,5.60
2022-12-28T18:56:05.298Z,5.60
2022-12-28T18:58:35.790Z,5.60
2022-12-28T19:04:08.062Z,5.60
2022-12-28T19:06:36.257Z,5.60
2022-12-28T19:09:06.673Z,5.60
2022-12-28T19:11:33.958Z,5.50
2022-12-28T19:14:07.365Z,5.50
2022-12-28T19:16:35.238Z,5.50
2022-12-28T19:19:02.995Z,5.50
2022-12-28T19:21:41.178Z,5.50
2022-12-28T19:24:18.076Z,5.50
2022-12-28T19:26:47.011Z,5.50
2022-12-28T19:29:15.982Z,5.40
2022-12-28T19:31:43.190Z,5.40
2022-12-28T19:34:09.987Z,5.40
2022-12-28T19:36:37.112Z,5.30
2022-12-28T19:39:03.971Z,5.30
2022-12-28T19:41:30.748Z,5.30
2022-12-28T19:43:57.587Z,5.30
2022-12-28T19:46:32.411Z,5.30
2022-12-28T19:49:04.106Z,5.30
2022-12-28T19:51:33.031Z,5.30
2022-12-28T19:54:01.243Z,5.30
2022-12-28T19:56:28.470Z,5.30
2022-12-28T19:59:01.227Z,5.30
2022-12-28T20:01:36.001Z,5.30
2022-12-28T20:04:10.547Z,5.30
2022-12-28T20:06:42.669Z,5.30
2022-12-28T20:09:09.871Z,5.30
2022-12-28T20:11:37.075Z,5.30
2022-12-28T20:14:04.725Z,5.30
2022-12-28T20:16:34.188Z,5.20
2022-12-28T20:19:01.799Z,5.20
2022-12-28T20:21:29.072Z,5.20
2022-12-28T20:23:55.889Z,5.10
2022-12-28T20:26:28.245Z,5.10
2022-12-28T20:28:58.344Z,5.10
2022-12-28T20:31:25.748Z,5.10
2022-12-28T20:33:53.105Z,5.00
2022-12-28T20:36:26.656Z,5.00
2022-12-28T20:38:57.028Z,5.00
2022-12-28T20:41:48.692Z,4.90
2022-12-28T20:44:28.973Z,4.90
2022-12-28T20:46:56.709Z,4.90
2022-12-28T20:49:25.493Z,4.90
2022-12-28T20:51:53.571Z,4.90
2022-12-28T20:54:21.377Z,4.90
2022-12-28T20:56:54.258Z,4.90
2022-12-28T20:59:22.698Z,4.90
2022-12-28T21:01:49.555Z,4.90
2022-12-28T21:04:16.479Z,4.80
2022-12-28T21:06:43.282Z,4.90
2022-12-28T21:09:10.014Z,4.90
2022-12-28T21:11:36.738Z,4.90
2022-12-28T21:14:03.451Z,4.90
2022-12-28T21:16:30.240Z,4.90
2022-12-28T21:18:57.096Z,4.90
2022-12-28T21:21:23.946Z,4.90
2022-12-28T21:23:52.409Z,5.00
2022-12-28T21:26:20.762Z,4.90
2022-12-28T21:28:48.240Z,4.90
2022-12-28T21:31:15.505Z,4.90
2022-12-28T21:33:42.988Z,4.90
2022-12-28T21:36:19.029Z,4.80
2022-12-28T21:38:47.785Z,4.80
2022-12-28T21:41:41.582Z,4.80
2022-12-28T21:44:12.665Z,4.70
2022-12-28T21:46:40.229Z,4.80
2022-12-28T21:49:07.666Z,4.80
2022-12-28T21:51:35.225Z,4.80
2022-12-28T21:54:16.717Z,4.80
2022-12-28T21:56:46.514Z,4.80
2022-12-28T21:59:13.617Z,4.80
2022-12-28T22:02:00.675Z,4.80
2022-12-28T22:04:46.214Z,4.80
2022-12-28T22:07:16.703Z,4.80
2022-12-28T22:10:02.076Z,4.80
2022-12-28T22:12:34.854Z,4.90
2022-12-28T22:15:28.906Z,4.90
2022-12-28T22:18:03.741Z,4.90
2022-12-28T22:20:31.437Z,4.90
2022-12-28T22:23:00.853Z,5.00
2022-12-28T22:25:29.790Z,5.00
2022-12-28T22:27:57.589Z,5.00
2022-12-28T22:30:25.136Z,5.10
2022-12-28T22:32:52.007Z,5.10
2022-12-28T22:35:19.021Z,5.10
2022-12-28T22:37:45.865Z,5.20
2022-12-28T22:40:13.476Z,5.20
2022-12-28T22:42:42.904Z,5.20
2022-12-28T22:45:16.029Z,5.20
2022-12-28T22:47:43.676Z,5.20
2022-12-28T22:50:14.564Z,5.30
2022-12-28T22:52:41.710Z,5.30
2022-12-28T22:55:09.512Z,5.30
2022-12-28T22:57:36.463Z,5.30
2022-12-28T23:00:08.496Z,5.40
2022-12-28T23:02:35.592Z,5.40
2022-12-28T23:05:03.086Z,5.40
2022-12-28T23:07:29.826Z,5.50
2022-12-28T23:09:56.553Z,5.50
2022-12-28T23:12:23.764Z,5.60
2022-12-28T23:15:08.914Z,5.70
2022-12-28T23:17:35.696Z,5.70
2022-12-28T23:20:20.858Z,5.80
2022-12-28T23:23:10.509Z,5.80
2022-12-28T23:25:58.906Z,5.90
2022-12-28T23:28:26.564Z,5.90
2022-12-28T23:30:53.887Z,5.90
2022-12-28T23:33:20.729Z,5.90
2022-12-28T23:35:48.492Z,6.00
2022-12-28T23:38:15.306Z,6.10
2022-12-28T23:40:42.596Z,6.10
2022-12-28T23:43:09.424Z,6.10
2022-12-28T23:45:36.732Z,6.10
2022-12-28T23:48:04.704Z,6.10
2022-12-28T23:50:31.677Z,6.20
2022-12-28T23:52:58.450Z,6.30
2022-12-28T23:55:25.405Z,6.30
2022-12-28T23:57:52.159Z,6.20
